Time;durP1;ratioP1;P1;durP2;ratioP2;P2;SDS_P1;SDS_P2;PMS_P1;PMS_P2;Temp;Humidity;BMP_temperature;BMP_pressure;BME280_temperature;BME280_humidity;BME280_pressure;Samples;Min_cycle;Max_cycle;Signal;HPM_P1;HPM_P2
2023/05/16 00:00:17;;;;;;;10.80;2.10;;;9.00;83.60;;;;;;5040878;28;20085;-78
2023/05/16 00:02:42;;;;;;;12.73;2.53;;;9.00;83.70;;;;;;5074456;28;20047;-79
2023/05/16 00:05:09;;;;;;;13.63;2.50;;;9.00;83.50;;;;;;5057100;28;20061;-79
2023/05/16 00:07:35;;;;;;;10.75;2.40;;;9.00;83.70;;;;;;5028296;28;20040;-79
2023/05/16 00:10:02;;;;;;;15.93;2.33;;;9.00;83.60;;;;;;5057387;28;20169;-80
2023/05/16 00:12:28;;;;;;;11.80;2.78;;;9.00;83.90;;;;;;5057465;28;20524;-78
2023/05/16 00:14:54;;;;;;;14.10;2.85;;;9.00;84.00;;;;;;5057340;28;20037;-80
2023/05/16 00:17:20;;;;;;;10.18;3.65;;;8.90;83.80;;;;;;5073928;28;20127;-78
2023/05/16 00:19:47;;;;;;;10.23;2.10;;;8.90;83.70;;;;;;5073987;28;20058;-77
2023/05/16 00:22:16;;;;;;;21.83;2.83;;;8.80;83.80;;;;;;5057214;28;20052;-79
2023/05/16 00:24:42;;;;;;;15.15;2.72;;;8.90;84.00;;;;;;5040611;28;20063;-79
2023/05/16 00:27:07;;;;;;;13.75;2.80;;;8.90;84.10;;;;;;5073860;28;20048;-79
2023/05/16 00:29:34;;;;;;;13.90;2.25;;;8.90;84.10;;;;;;5057197;28;20033;-78
2023/05/16 00:32:00;;;;;;;9.35;2.45;;;8.90;83.80;;;;;;5040211;28;20044;-79
2023/05/16 00:34:25;;;;;;;15.88;3.63;;;8.90;83.80;;;;;;5056986;28;20043;-78
2023/05/16 00:36:52;;;;;;;10.30;2.50;;;8.80;83.90;;;;;;5073369;28;20075;-79
2023/05/16 00:39:18;;;;;;;11.27;2.50;;;8.80;84.00;;;;;;5073268;28;20044;-78
2023/05/16 00:41:44;;;;;;;8.32;2.60;;;8.80;84.00;;;;;;5056958;28;20047;-79
2023/05/16 00:44:10;;;;;;;13.35;2.95;;;8.80;84.20;;;;;;5073314;28;20137;-79
2023/05/16 00:46:36;;;;;;;14.60;3.90;;;8.70;84.30;;;;;;5073164;28;20060;-77
2023/05/16 00:49:02;;;;;;;11.57;2.88;;;8.70;84.50;;;;;;5040099;28;20080;-78
2023/05/16 00:51:28;;;;;;;11.82;3.58;;;8.70;84.60;;;;;;5073313;28;20037;-77
2023/05/16 00:53:55;;;;;;;10.80;2.75;;;8.70;84.70;;;;;;5073029;28;20045;-78
2023/05/16 00:56:21;;;;;;;12.63;3.00;;;8.70;84.80;;;;;;5072924;28;20669;-78
2023/05/16 00:58:47;;;;;;;13.00;3.30;;;8.70;84.80;;;;;;5073509;28;20423;-78
2023/05/16 01:01:13;;;;;;;12.30;2.70;;;8.80;84.70;;;;;;5056526;28;20048;-79
2023/05/16 01:03:39;;;;;;;13.60;3.13;;;8.80;84.90;;;;;;5056127;28;20418;-77
2023/05/16 01:06:05;;;;;;;13.55;2.35;;;8.80;84.80;;;;;;5056041;28;20049;-79
2023/05/16 01:08:31;;;;;;;11.85;3.38;;;8.70;85.00;;;;;;5056468;28;20044;-79
2023/05/16 01:11:26;;;;;;;12.90;2.45;;;8.80;84.90;;;;;;5073072;28;20121;-79
2023/05/16 01:14:14;;;;;;;16.63;3.17;;;8.70;85.10;;;;;;5091348;28;20373;-77
2023/05/16 01:16:53;;;;;;;14.43;2.60;;;8.70;85.10;;;;;;5075967;28;20074;-79
2023/05/16 01:19:34;;;;;;;11.98;2.58;;;8.70;85.20;;;;;;5093167;28;20040;-78
2023/05/16 01:22:08;;;;;;;15.07;3.15;;;8.60;85.30;;;;;;5075838;28;20044;-80
2023/05/16 01:24:45;;;;;;;20.00;3.28;;;8.60;85.40;;;;;;5092258;28;20075;-79
2023/05/16 01:27:13;;;;;;;18.10;3.03;;;8.60;85.30;;;;;;5055702;28;20037;-78
2023/05/16 01:29:38;;;;;;;13.63;2.75;;;8.50;85.40;;;;;;5072744;28;20038;-79
2023/05/16 01:32:04;;;;;;;13.48;3.33;;;8.50;85.30;;;;;;5055740;28;20119;-80
2023/05/16 01:34:30;;;;;;;9.98;2.58;;;8.50;85.40;;;;;;5055676;28;20111;-80
2023/05/16 01:37:11;;;;;;;9.00;2.35;;;8.50;85.50;;;;;;5056189;28;20044;-80
2023/05/16 01:39:44;;;;;;;12.93;2.90;;;8.50;85.40;;;;;;5072845;28;20049;-78
2023/05/16 01:42:14;;;;;;;12.48;3.17;;;8.50;85.30;;;;;;5055593;28;20036;-79
2023/05/16 01:45:02;;;;;;;11.88;2.72;;;8.50;85.30;;;;;;5072240;28;20041;-79
2023/05/16 01:47:30;;;;;;;10.25;2.65;;;8.50;85.20;;;;;;5055480;28;20045;-78
2023/05/16 01:50:24;;;;;;;12.02;2.85;;;8.50;85.20;;;;;;5055845;28;20453;-78
2023/05/16 01:52:59;;;;;;;12.10;2.67;;;8.50;85.20;;;;;;5071037;28;20361;-78
2023/05/16 01:55:50;;;;;;;8.23;1.90;;;8.50;85.00;;;;;;5072625;28;20036;-78
2023/05/16 01:58:19;;;;;;;9.88;2.72;;;8.50;84.90;;;;;;5059481;28;20045;-79
2023/05/16 02:00:45;;;;;;;16.27;2.88;;;8.50;85.00;;;;;;5075989;28;20051;-77
2023/05/16 02:03:10;;;;;;;7.25;2.20;;;8.50;84.90;;;;;;5059345;28;20427;-79
2023/05/16 02:05:36;;;;;;;11.93;2.25;;;8.40;84.80;;;;;;5025892;28;20056;-79
2023/05/16 02:08:02;;;;;;;18.17;2.83;;;8.40;84.70;;;;;;5075792;28;20830;-80
2023/05/16 02:10:28;;;;;;;11.68;2.10;;;8.40;84.50;;;;;;5059308;28;20036;-79
2023/05/16 02:12:54;;;;;;;10.57;1.75;;;8.30;84.50;;;;;;5075929;28;20039;-78
2023/05/16 02:15:20;;;;;;;12.70;2.28;;;8.30;84.50;;;;;;5075644;28;20058;-78
2023/05/16 02:17:46;;;;;;;7.15;2.00;;;8.30;84.50;;;;;;5079020;28;20039;-80
2023/05/16 02:20:12;;;;;;;9.32;2.15;;;8.20;84.30;;;;;;5079180;28;20040;-80
2023/05/16 02:22:38;;;;;;;13.15;2.35;;;8.20;84.40;;;;;;5079028;28;20036;-79
2023/05/16 02:25:05;;;;;;;11.20;2.10;;;8.20;84.30;;;;;;5078738;28;20040;-78
2023/05/16 02:27:31;;;;;;;10.90;2.30;;;8.20;84.20;;;;;;5095640;28;20044;-78
2023/05/16 02:29:57;;;;;;;14.57;2.95;;;8.20;84.20;;;;;;5095784;28;20470;-79
2023/05/16 02:32:22;;;;;;;11.48;2.50;;;8.30;84.30;;;;;;5079076;28;20175;-79
2023/05/16 02:34:48;;;;;;;12.02;2.17;;;8.30;84.10;;;;;;5062141;28;20045;-80
2023/05/16 02:37:15;;;;;;;10.13;2.30;;;8.30;84.20;;;;;;5075103;28;20097;-78
2023/05/16 02:39:40;;;;;;;13.05;2.15;;;8.20;84.30;;;;;;5042076;28;20043;-79
2023/05/16 02:42:06;;;;;;;16.73;2.92;;;8.20;84.30;;;;;;5058847;28;20041;-79
2023/05/16 02:44:32;;;;;;;13.68;2.50;;;8.20;84.30;;;;;;5058303;28;20080;-79
2023/05/16 02:46:58;;;;;;;11.18;2.83;;;8.20;84.40;;;;;;5058010;28;20076;-78
2023/05/16 02:49:25;;;;;;;18.23;2.67;;;8.20;84.30;;;;;;5058406;28;20037;-79
2023/05/16 02:51:50;;;;;;;11.00;2.55;;;8.20;84.40;;;;;;5090312;28;20036;-79
2023/05/16 02:54:16;;;;;;;11.48;3.15;;;8.20;84.50;;;;;;5078484;28;20158;-78
2023/05/16 02:56:43;;;;;;;9.23;2.42;;;8.20;84.40;;;;;;5095301;28;20083;-78
2023/05/16 02:59:10;;;;;;;10.38;2.13;;;8.20;84.50;;;;;;5078500;28;20377;-78
2023/05/16 03:01:36;;;;;;;11.35;2.83;;;8.10;84.40;;;;;;5095091;28;20081;-80
2023/05/16 03:04:02;;;;;;;9.43;1.80;;;8.10;84.40;;;;;;5078683;28;20424;-80
2023/05/16 03:06:29;;;;;;;6.75;2.08;;;8.20;84.50;;;;;;5093164;28;20047;-79
2023/05/16 03:08:55;;;;;;;6.95;1.80;;;8.10;84.40;;;;;;5076798;28;20078;-79
2023/05/16 03:11:21;;;;;;;8.88;2.10;;;8.10;84.40;;;;;;5077933;28;20032;-78
2023/05/16 03:13:47;;;;;;;12.27;2.22;;;8.10;84.40;;;;;;5094548;28;20040;-79
2023/05/16 03:16:14;;;;;;;8.05;1.80;;;8.10;84.40;;;;;;5061139;28;20146;-78
2023/05/16 03:18:40;;;;;;;13.13;2.53;;;8.10;84.30;;;;;;5094412;28;20127;-79
2023/05/16 03:21:06;;;;;;;10.05;2.22;;;8.10;84.10;;;;;;5094257;28;20075;-78
2023/05/16 03:23:32;;;;;;;13.55;2.55;;;8.10;84.10;;;;;;5073473;28;20048;-79
2023/05/16 03:25:58;;;;;;;8.52;2.35;;;8.00;84.20;;;;;;5057215;28;20045;-78
2023/05/16 03:28:24;;;;;;;11.18;3.05;;;8.00;84.30;;;;;;5074119;28;20037;-79
2023/05/16 03:30:49;;;;;;;9.70;2.22;;;8.10;84.40;;;;;;5073826;28;20032;-79
2023/05/16 03:33:15;;;;;;;12.18;2.03;;;8.00;84.50;;;;;;5073829;28;20533;-80
2023/05/16 03:35:42;;;;;;;11.77;2.83;;;8.10;84.30;;;;;;5040093;28;20447;-79
2023/05/16 03:38:08;;;;;;;13.20;2.33;;;8.10;84.50;;;;;;5073448;28;20046;-79
2023/05/16 03:40:34;;;;;;;10.25;2.28;;;8.10;84.40;;;;;;5056700;28;20484;-80
2023/05/16 03:42:59;;;;;;;10.93;2.15;;;8.10;84.40;;;;;;5057622;28;20358;-79
2023/05/16 03:45:25;;;;;;;8.52;2.50;;;8.10;84.50;;;;;;5057096;28;20071;-79
2023/05/16 03:47:51;;;;;;;7.45;2.00;;;8.10;84.60;;;;;;5057339;28;20086;-78
2023/05/16 03:50:17;;;;;;;6.30;2.15;;;8.00;84.70;;;;;;5057535;28;20567;-80
2023/05/16 03:52:42;;;;;;;14.98;2.42;;;8.00;84.80;;;;;;5073748;28;20055;-80
2023/05/16 03:55:08;;;;;;;10.98;2.10;;;8.10;84.90;;;;;;5073878;28;20040;-79
2023/05/16 03:57:41;;;;;;;18.40;2.83;;;8.00;85.00;;;;;;5056986;28;20049;-79
2023/05/16 04:00:07;;;;;;;12.18;2.53;;;8.00;85.10;;;;;;5057235;28;20117;-79
2023/05/16 04:02:33;;;;;;;12.90;2.85;;;8.00;85.20;;;;;;5090629;28;20051;-78
2023/05/16 04:04:59;;;;;;;10.65;2.33;;;8.00;85.10;;;;;;5056845;28;20053;-78
2023/05/16 04:07:24;;;;;;;12.18;2.25;;;8.10;85.10;;;;;;5073395;28;20048;-79
2023/05/16 04:09:50;;;;;;;9.20;2.45;;;8.10;84.90;;;;;;5057046;28;20033;-79
2023/05/16 04:12:16;;;;;;;8.82;2.10;;;8.10;85.00;;;;;;5073437;28;20032;-78
2023/05/16 04:14:42;;;;;;;11.25;2.47;;;8.20;84.80;;;;;;5079669;28;20063;-80
2023/05/16 04:17:08;;;;;;;10.18;1.92;;;8.20;84.90;;;;;;5093297;28;20043;-78
2023/05/16 04:19:34;;;;;;;18.95;3.67;;;8.20;84.90;;;;;;5092737;28;20419;-78
2023/05/16 04:21:59;;;;;;;6.47;2.03;;;8.20;84.80;;;;;;5076065;28;20043;-79
2023/05/16 04:24:27;;;;;;;10.27;2.50;;;8.30;84.70;;;;;;5076092;28;20082;-79
2023/05/16 04:26:54;;;;;;;12.63;2.70;;;8.30;84.60;;;;;;5076791;28;20032;-79
2023/05/16 04:29:20;;;;;;;9.75;2.55;;;8.20;84.80;;;;;;5074999;28;20036;-79
2023/05/16 04:31:46;;;;;;;10.43;2.15;;;8.30;84.70;;;;;;5056890;28;20045;-79
2023/05/16 04:34:12;;;;;;;10.60;1.90;;;8.30;84.80;;;;;;5056904;28;20067;-79
2023/05/16 04:36:38;;;;;;;8.32;2.08;;;8.30;84.90;;;;;;5056304;28;20044;-78
2023/05/16 04:39:04;;;;;;;13.90;2.20;;;8.30;84.80;;;;;;5072774;28;20044;-79
2023/05/16 04:41:30;;;;;;;8.52;2.10;;;8.40;84.70;;;;;;5056563;28;20527;-81
2023/05/16 04:43:56;;;;;;;8.80;2.60;;;8.40;84.70;;;;;;5056520;28;20075;-80
2023/05/16 04:46:22;;;;;;;14.15;2.63;;;8.40;84.70;;;;;;5056640;28;20047;-79
2023/05/16 04:48:47;;;;;;;13.88;2.08;;;8.50;84.70;;;;;;5073375;28;20047;-79
2023/05/16 04:51:13;;;;;;;16.23;3.00;;;8.50;84.50;;;;;;5040118;28;20033;-81
2023/05/16 04:53:39;;;;;;;8.77;1.90;;;8.50;84.50;;;;;;5040063;28;20041;-80
2023/05/16 04:56:05;;;;;;;12.25;2.15;;;8.50;84.60;;;;;;5073347;28;20129;-80
2023/05/16 04:58:31;;;;;;;8.45;1.65;;;8.60;84.60;;;;;;5073467;28;20504;-82
2023/05/16 05:00:56;;;;;;;12.60;2.47;;;8.60;84.70;;;;;;5073498;28;20071;-79
2023/05/16 05:03:22;;;;;;;9.82;1.77;;;8.70;84.50;;;;;;5040130;28;20101;-81
2023/05/16 05:05:48;;;;;;;10.82;2.30;;;8.70;84.70;;;;;;5056197;28;20052;-78
2023/05/16 05:08:15;;;;;;;7.93;1.88;;;8.70;84.60;;;;;;5056425;28;20093;-80
2023/05/16 05:10:41;;;;;;;11.80;2.55;;;8.80;84.60;;;;;;5039898;28;20542;-80
2023/05/16 05:13:07;;;;;;;12.32;2.42;;;8.90;84.60;;;;;;5039875;28;20036;-81
2023/05/16 05:15:32;;;;;;;10.15;2.08;;;9.00;84.50;;;;;;5073067;28;20457;-80
2023/05/16 05:17:58;;;;;;;5.78;1.48;;;9.00;84.00;;;;;;5073138;28;20127;-80
2023/05/16 05:20:25;;;;;;;7.43;2.42;;;9.00;83.80;;;;;;5072716;28;20400;-80
2023/05/16 05:22:50;;;;;;;5.60;1.30;;;9.00;83.60;;;;;;5072784;28;20040;-80
2023/05/16 05:25:16;;;;;;;7.82;1.27;;;9.10;83.30;;;;;;5056349;28;20098;-79
2023/05/16 05:27:42;;;;;;;6.88;1.95;;;9.10;83.10;;;;;;5072661;28;20079;-80
2023/05/16 05:30:08;;;;;;;5.97;1.40;;;9.30;82.80;;;;;;5055776;28;20037;-80
2023/05/16 05:32:34;;;;;;;6.05;1.35;;;9.30;82.20;;;;;;5059819;28;20040;-80
2023/05/16 05:34:59;;;;;;;7.85;1.42;;;9.40;82.10;;;;;;5059969;28;20048;-82
2023/05/16 05:37:25;;;;;;;7.63;1.90;;;9.50;81.80;;;;;;5044104;28;20071;-78
2023/05/16 05:39:51;;;;;;;12.55;2.35;;;9.50;81.90;;;;;;5042967;28;20040;-79
2023/05/16 05:42:17;;;;;;;10.38;2.05;;;9.50;81.80;;;;;;5076617;28;20104;-81
2023/05/16 05:44:43;;;;;;;10.15;1.67;;;9.60;82.00;;;;;;5043475;28;20036;-79
2023/05/16 05:47:08;;;;;;;9.68;1.48;;;9.80;81.30;;;;;;5076625;28;20378;-80
2023/05/16 05:49:34;;;;;;;7.43;1.73;;;9.80;81.50;;;;;;5067847;28;20072;-79
2023/05/16 05:52:00;;;;;;;6.20;1.50;;;9.80;81.90;;;;;;5076806;28;20051;-79
2023/05/16 05:54:26;;;;;;;6.30;1.10;;;9.90;82.50;;;;;;5059929;28;20044;-78
2023/05/16 05:56:52;;;;;;;6.75;1.23;;;9.90;82.20;;;;;;5060117;28;20080;-79
2023/05/16 05:59:17;;;;;;;5.40;1.00;;;9.80;81.40;;;;;;5059286;28;20040;-78
2023/05/16 06:01:43;;;;;;;4.35;1.20;;;9.80;80.90;;;;;;5042988;28;20076;-79
2023/05/16 06:04:10;;;;;;;6.97;1.20;;;9.80;79.80;;;;;;5042928;28;20404;-79
2023/05/16 06:06:37;;;;;;;4.55;1.10;;;9.80;79.80;;;;;;5042685;28;20041;-80
2023/05/16 06:09:02;;;;;;;8.85;1.73;;;9.80;79.40;;;;;;5065406;28;20044;-79
2023/05/16 06:11:28;;;;;;;3.15;1.20;;;9.70;79.80;;;;;;5100301;28;20031;-78
2023/05/16 06:13:54;;;;;;;4.35;1.13;;;9.80;80.40;;;;;;5101939;28;20051;-78
2023/05/16 06:16:24;;;;;;;5.68;1.30;;;9.80;80.70;;;;;;5101997;28;20032;-78
2023/05/16 06:18:50;;;;;;;6.85;1.52;;;9.80;80.60;;;;;;5084725;28;20044;-79
2023/05/16 06:21:15;;;;;;;8.00;1.35;;;9.80;81.10;;;;;;5067299;28;20040;-79
2023/05/16 06:23:41;;;;;;;5.38;1.30;;;9.80;81.40;;;;;;5067044;28;20033;-80
2023/05/16 06:26:07;;;;;;;10.10;1.60;;;9.80;81.60;;;;;;5099307;28;20040;-80
2023/05/16 06:28:32;;;;;;;9.95;1.70;;;9.80;81.70;;;;;;5064930;28;20076;-79
2023/05/16 06:30:58;;;;;;;10.48;2.00;;;9.80;81.70;;;;;;5047218;28;20577;-77
2023/05/16 06:33:24;;;;;;;11.43;1.90;;;9.70;81.70;;;;;;5059340;28;20086;-77
2023/05/16 06:35:51;;;;;;;9.82;2.58;;;9.70;81.60;;;;;;5060199;28;20072;-78
2023/05/16 06:38:18;;;;;;;15.27;2.53;;;9.80;81.80;;;;;;5059578;28;20123;-78
2023/05/16 06:40:44;;;;;;;8.70;1.67;;;9.90;81.80;;;;;;5076518;28;20045;-78
2023/05/16 06:43:10;;;;;;;11.25;1.70;;;10.00;81.70;;;;;;5059139;28;20052;-78
2023/05/16 06:45:36;;;;;;;8.45;2.42;;;10.10;81.50;;;;;;5059523;28;20036;-78
2023/05/16 06:48:03;;;;;;;10.18;1.80;;;10.20;81.00;;;;;;5075914;28;20049;-79
2023/05/16 06:50:29;;;;;;;14.55;1.90;;;10.40;80.60;;;;;;5058771;28;20369;-79
2023/05/16 06:52:55;;;;;;;12.77;1.70;;;10.50;80.80;;;;;;5059257;28;20032;-77
2023/05/16 06:55:20;;;;;;;8.90;1.60;;;10.60;79.70;;;;;;5075557;28;20075;-78
2023/05/16 06:57:46;;;;;;;11.45;2.20;;;10.70;77.90;;;;;;5058861;28;20036;-76
2023/05/16 07:00:13;;;;;;;11.18;2.10;;;10.70;77.00;;;;;;5075423;28;20087;-77
2023/05/16 07:02:39;;;;;;;7.90;2.28;;;10.60;76.10;;;;;;5042187;28;20471;-78
2023/05/16 07:05:06;;;;;;;8.00;2.03;;;10.70;75.80;;;;;;5058831;28;20087;-77
2023/05/16 07:07:31;;;;;;;8.02;1.73;;;10.70;75.90;;;;;;5041891;28;20832;-78
2023/05/16 07:09:57;;;;;;;6.97;2.15;;;10.80;76.10;;;;;;5075323;28;20047;-78
2023/05/16 07:12:23;;;;;;;12.98;1.85;;;11.00;75.70;;;;;;5075185;28;20037;-78
2023/05/16 07:14:49;;;;;;;10.13;2.20;;;11.00;74.90;;;;;;5041781;28;20032;-77
2023/05/16 07:17:15;;;;;;;9.43;1.67;;;11.10;75.00;;;;;;5041848;28;20045;-78
2023/05/16 07:19:40;;;;;;;10.82;2.50;;;11.20;75.60;;;;;;5025201;28;20039;-78
2023/05/16 07:22:06;;;;;;;6.00;1.70;;;11.50;76.00;;;;;;5058564;28;20127;-79
2023/05/16 07:24:32;;;;;;;7.88;1.90;;;11.60;75.20;;;;;;5058212;28;20131;-77
2023/05/16 07:26:57;;;;;;;8.98;2.80;;;11.80;74.30;;;;;;5058116;28;20132;-77
2023/05/16 07:29:24;;;;;;;8.70;2.10;;;11.80;72.40;;;;;;5057860;28;20040;-79
2023/05/16 07:31:49;;;;;;;7.90;1.45;;;11.70;71.60;;;;;;5025132;28;20075;-76
2023/05/16 07:34:15;;;;;;;6.00;1.73;;;11.70;71.60;;;;;;5074583;28;20040;-78
2023/05/16 07:36:41;;;;;;;4.25;1.08;;;11.80;72.20;;;;;;5058177;28;20052;-79
2023/05/16 07:39:07;;;;;;;4.22;1.10;;;11.70;69.80;;;;;;5074490;28;20044;-78
2023/05/16 07:41:33;;;;;;;10.45;1.95;;;11.50;69.40;;;;;;5074727;28;20439;-78
2023/05/16 07:43:58;;;;;;;9.35;2.20;;;11.30;71.20;;;;;;5057841;28;20110;-79
2023/05/16 07:46:24;;;;;;;6.85;1.33;;;11.10;73.30;;;;;;5074527;28;20403;-79
2023/05/16 07:48:50;;;;;;;6.65;2.03;;;11.10;74.90;;;;;;5058141;28;20041;-77
2023/05/16 07:51:16;;;;;;;9.10;1.98;;;11.30;75.70;;;;;;5074538;28;20072;-78
2023/05/16 07:53:42;;;;;;;9.27;2.05;;;11.30;75.10;;;;;;5057286;28;20095;-78
2023/05/16 07:56:08;;;;;;;5.80;1.95;;;11.40;75.60;;;;;;5057976;28;20040;-80
2023/05/16 07:58:34;;;;;;;9.02;1.95;;;11.30;75.10;;;;;;5041334;28;20055;-78
2023/05/16 08:00:59;;;;;;;9.55;1.73;;;11.20;75.00;;;;;;5073436;28;20481;-79
2023/05/16 08:03:25;;;;;;;8.95;1.90;;;11.10;74.60;;;;;;5057072;28;20048;-78
2023/05/16 08:05:51;;;;;;;8.68;2.28;;;11.00;75.40;;;;;;5073587;28;20056;-79
2023/05/16 08:08:17;;;;;;;8.88;1.77;;;11.10;75.90;;;;;;5040691;28;20037;-79
2023/05/16 08:10:43;;;;;;;15.43;2.42;;;11.40;76.30;;;;;;5057201;28;20170;-78
2023/05/16 08:13:08;;;;;;;6.03;1.40;;;11.50;76.00;;;;;;5024095;28;20102;-79
2023/05/16 08:15:34;;;;;;;12.23;2.88;;;11.80;74.50;;;;;;5055187;28;20036;-80
2023/05/16 08:18:00;;;;;;;11.00;2.25;;;11.90;73.10;;;;;;5077538;28;20048;-79
2023/05/16 08:20:26;;;;;;;8.95;1.65;;;12.00;72.00;;;;;;5063936;28;20075;-78
2023/05/16 08:22:53;;;;;;;11.55;2.67;;;11.90;70.90;;;;;;5081336;28;20058;-79
2023/05/16 08:25:19;;;;;;;9.00;2.33;;;11.90;71.60;;;;;;5081043;28;20590;-79
2023/05/16 08:27:45;;;;;;;6.97;1.60;;;11.90;71.60;;;;;;5046425;28;20127;-78
2023/05/16 08:30:12;;;;;;;8.18;1.80;;;11.90;71.20;;;;;;5061047;28;20051;-79
2023/05/16 08:32:38;;;;;;;12.63;1.98;;;11.90;70.70;;;;;;5068341;28;20093;-79
2023/05/16 08:35:04;;;;;;;8.85;2.15;;;12.00;71.40;;;;;;5049875;28;20572;-80
2023/05/16 08:37:29;;;;;;;7.03;1.70;;;12.20;71.40;;;;;;5063195;28;20040;-80
2023/05/16 08:39:56;;;;;;;6.22;1.85;;;12.40;69.70;;;;;;5050688;28;20403;-77
2023/05/16 08:42:21;;;;;;;8.82;2.05;;;12.50;69.70;;;;;;5063207;28;20113;-77
2023/05/16 08:44:48;;;;;;;8.32;2.88;;;12.50;70.30;;;;;;5061694;28;20493;-81
2023/05/16 08:47:25;;;;;;;8.85;1.83;;;12.50;69.80;;;;;;5049599;28;20085;-78
2023/05/16 08:49:55;;;;;;;8.75;2.35;;;12.30;70.00;;;;;;5063528;28;20036;-77
2023/05/16 08:52:22;;;;;;;6.72;1.90;;;12.20;71.70;;;;;;5058572;28;20040;-78
2023/05/16 08:54:50;;;;;;;14.75;2.88;;;12.00;71.80;;;;;;5084681;28;20068;-79
2023/05/16 08:57:16;;;;;;;12.70;3.53;;;11.90;72.80;;;;;;5063976;28;20047;-79
2023/05/16 08:59:43;;;;;;;7.30;2.10;;;12.00;74.00;;;;;;5052764;28;20442;-79
2023/05/16 09:02:10;;;;;;;6.10;1.50;;;12.20;73.40;;;;;;5060277;28;20106;-79
2023/05/16 09:04:37;;;;;;;10.25;1.88;;;12.40;72.40;;;;;;5066589;28;20060;-79
2023/05/16 09:07:03;;;;;;;11.27;1.90;;;12.60;72.30;;;;;;5078280;28;20555;-79
2023/05/16 09:09:29;;;;;;;8.95;1.55;;;12.80;70.80;;;;;;5039878;28;20188;-80
2023/05/16 09:11:55;;;;;;;6.60;1.83;;;12.80;69.30;;;;;;5082301;28;20045;-80
2023/05/16 09:14:21;;;;;;;7.90;1.58;;;12.60;67.60;;;;;;5071549;28;20098;-79
2023/05/16 09:17:03;;;;;;;7.00;1.65;;;12.60;68.20;;;;;;5050845;28;20526;-79
2023/05/16 09:19:37;;;;;;;4.55;1.40;;;12.70;68.20;;;;;;5055797;28;20400;-79
2023/05/16 09:22:04;;;;;;;9.70;1.60;;;13.00;68.30;;;;;;5074511;28;20545;-79
2023/05/16 09:24:30;;;;;;;8.05;1.63;;;13.10;66.30;;;;;;5045611;28;20044;-79
2023/05/16 09:26:56;;;;;;;8.70;2.55;;;13.10;67.90;;;;;;5045488;28;20055;-79
2023/05/16 09:29:22;;;;;;;10.10;1.75;;;13.00;66.10;;;;;;5067704;28;20042;-79
2023/05/16 09:31:48;;;;;;;10.10;1.88;;;12.70;65.80;;;;;;5065175;28;20102;-79
2023/05/16 09:34:14;;;;;;;6.30;1.33;;;12.70;65.50;;;;;;5063472;28;20048;-80
2023/05/16 09:36:40;;;;;;;8.27;1.85;;;12.80;65.30;;;;;;5042068;28;20045;-80
2023/05/16 09:39:06;;;;;;;6.20;1.70;;;13.00;65.60;;;;;;5063267;28;20503;-80
2023/05/16 09:41:33;;;;;;;10.60;2.25;;;13.10;66.70;;;;;;5065577;28;20763;-80
2023/05/16 09:44:03;;;;;;;8.38;1.70;;;13.20;65.20;;;;;;5054139;28;20107;-81
2023/05/16 09:46:30;;;;;;;10.45;1.50;;;13.10;66.10;;;;;;5082831;28;20412;-80
2023/05/16 09:48:55;;;;;;;6.75;2.10;;;13.00;66.50;;;;;;5082539;28;20040;-80
2023/05/16 09:51:22;;;;;;;6.43;1.80;;;12.90;66.00;;;;;;5058837;28;20032;-80
2023/05/16 09:53:48;;;;;;;10.55;1.42;;;12.90;65.30;;;;;;5044428;28;20041;-80
2023/05/16 09:56:15;;;;;;;7.22;1.67;;;12.80;66.20;;;;;;5079147;28;20040;-79
2023/05/16 09:58:42;;;;;;;5.97;1.60;;;12.70;67.10;;;;;;5061427;28;20044;-80
2023/05/16 10:01:09;;;;;;;7.13;1.92;;;12.70;67.00;;;;;;5067817;28;20105;-80
2023/05/16 10:03:37;;;;;;;7.25;2.13;;;12.50;65.90;;;;;;5043340;28;20048;-80
2023/05/16 10:06:07;;;;;;;5.63;1.92;;;12.70;67.60;;;;;;5061322;28;20095;-80
2023/05/16 10:08:35;;;;;;;5.97;1.58;;;12.80;66.20;;;;;;5061031;28;21250;-80
2023/05/16 10:11:02;;;;;;;10.75;2.90;;;13.00;65.80;;;;;;5052341;28;20067;-79
2023/05/16 10:13:31;;;;;;;5.97;1.83;;;13.20;65.30;;;;;;5062686;28;20040;-78
2023/05/16 10:15:59;;;;;;;7.60;1.70;;;13.20;64.60;;;;;;5076889;28;20048;-78
2023/05/16 10:18:30;;;;;;;6.03;1.65;;;13.20;63.70;;;;;;5064483;28;20040;-79
2023/05/16 10:21:01;;;;;;;10.63;1.88;;;13.30;63.50;;;;;;5064210;28;20050;-79
2023/05/16 10:23:28;;;;;;;6.60;1.73;;;13.50;65.00;;;;;;5085321;28;20052;-78
2023/05/16 10:25:56;;;;;;;9.18;1.60;;;13.60;66.20;;;;;;5081282;28;20040;-79
2023/05/16 10:28:25;;;;;;;8.52;1.48;;;13.70;65.10;;;;;;5078056;28;20078;-79
2023/05/16 10:30:54;;;;;;;7.07;1.80;;;13.60;64.50;;;;;;5066219;28;20481;-78
2023/05/16 10:33:20;;;;;;;11.52;3.03;;;13.50;65.80;;;;;;5066237;28;20041;-79
2023/05/16 10:35:46;;;;;;;7.13;2.08;;;13.40;67.20;;;;;;5063071;28;20445;-79
2023/05/16 10:38:16;;;;;;;5.80;1.92;;;13.30;67.60;;;;;;5065498;28;20044;-79
2023/05/16 10:40:42;;;;;;;9.02;2.45;;;13.10;66.90;;;;;;5086313;28;20492;-79
2023/05/16 10:43:08;;;;;;;9.25;2.28;;;12.90;69.30;;;;;;5070759;28;20036;-78
2023/05/16 10:45:40;;;;;;;6.47;1.77;;;12.50;70.40;;;;;;5064842;28;20114;-79
2023/05/16 10:48:08;;;;;;;7.72;1.95;;;12.20;72.30;;;;;;5061971;28;20070;-79
2023/05/16 10:50:42;;;;;;;8.43;1.98;;;12.00;73.60;;;;;;5048544;28;20106;-79
2023/05/16 10:53:11;;;;;;;;;;;12.20;74.80;;;;;;5063435;28;20032;-79
2023/05/16 10:55:38;;;;;;;11.82;2.15;;;12.30;75.70;;;;;;5084278;28;19920;-79
2023/05/16 10:58:04;;;;;;;6.88;1.60;;;12.40;75.80;;;;;;5082967;28;20040;-79
2023/05/16 11:00:30;;;;;;;6.53;1.60;;;12.50;75.90;;;;;;5049074;28;20039;-79
2023/05/16 11:03:18;;;;;;;8.07;1.50;;;12.60;72.40;;;;;;5079834;28;20438;-80
2023/05/16 11:05:51;;;;;;;6.15;1.50;;;12.70;73.20;;;;;;5074368;28;20052;-79
2023/05/16 11:08:17;;;;;;;7.60;1.52;;;13.00;71.40;;;;;;5066727;28;20078;-80
2023/05/16 11:10:42;;;;;;;5.47;1.70;;;13.20;70.50;;;;;;5061053;28;20040;-79
2023/05/16 11:13:08;;;;;;;5.70;1.98;;;13.40;66.90;;;;;;5066884;28;20032;-78
2023/05/16 11:15:34;;;;;;;4.90;1.58;;;13.60;66.30;;;;;;5057589;28;20105;-79
2023/05/16 11:18:14;;;;;;;7.10;2.38;;;13.90;64.80;;;;;;5068435;28;20548;-79
2023/05/16 11:20:40;;;;;;;5.65;1.65;;;14.00;63.70;;;;;;5067876;28;20044;-79
2023/05/16 11:23:18;;;;;;;6.15;1.70;;;14.20;63.80;;;;;;5066999;28;20507;-80
2023/05/16 11:25:46;;;;;;;10.18;3.28;;;14.20;62.50;;;;;;5086334;28;20112;-79
2023/05/16 11:28:13;;;;;;;7.10;2.60;;;14.30;62.00;;;;;;5080401;28;20052;-79
2023/05/16 11:30:48;;;;;;;6.43;2.08;;;14.30;64.00;;;;;;5078636;28;20047;-80
2023/05/16 11:33:15;;;;;;;4.97;2.50;;;14.40;63.50;;;;;;5082317;28;20124;-80
2023/05/16 11:35:41;;;;;;;8.25;2.17;;;14.50;62.40;;;;;;5079658;28;20037;-80
2023/05/16 11:38:17;;;;;;;7.00;3.03;;;14.50;62.40;;;;;;5064590;28;20044;-79
2023/05/16 11:40:43;;;;;;;5.35;2.55;;;14.40;62.40;;;;;;5081263;28;20132;-79
2023/05/16 11:43:10;;;;;;;7.00;2.67;;;14.50;61.80;;;;;;5068338;28;20032;-80
2023/05/16 11:45:36;;;;;;;7.80;2.65;;;14.50;61.30;;;;;;5083332;28;20036;-80
2023/05/16 11:48:03;;;;;;;6.43;2.85;;;14.70;60.30;;;;;;5068367;28;20760;-79
2023/05/16 11:50:29;;;;;;;5.55;2.72;;;14.80;62.20;;;;;;5079112;28;20052;-80
2023/05/16 11:52:56;;;;;;;8.90;2.83;;;14.90;61.40;;;;;;5064884;28;20036;-78
2023/05/16 11:55:29;;;;;;;4.53;2.22;;;15.10;61.10;;;;;;5065914;28;20040;-79
2023/05/16 11:58:11;;;;;;;4.78;2.10;;;15.20;60.80;;;;;;5065111;28;20039;-80
2023/05/16 12:00:50;;;;;;;4.90;2.10;;;15.10;59.60;;;;;;5050031;28;20048;-78
2023/05/16 12:03:19;;;;;;;6.07;2.17;;;15.10;59.50;;;;;;5083294;28;20495;-77
2023/05/16 12:05:53;;;;;;;5.10;2.88;;;15.00;58.80;;;;;;5081418;28;20052;-79
2023/05/16 12:08:20;;;;;;;5.55;2.03;;;15.00;58.80;;;;;;5079223;28;20069;-79
2023/05/16 12:10:49;;;;;;;6.90;2.35;;;15.10;58.90;;;;;;5062150;28;20488;-78
2023/05/16 12:13:16;;;;;;;5.13;2.15;;;15.10;56.90;;;;;;5082328;28;20039;-78
2023/05/16 12:15:42;;;;;;;6.75;2.97;;;15.20;56.40;;;;;;5078942;28;20036;-79
2023/05/16 12:18:08;;;;;;;5.95;2.88;;;15.20;57.80;;;;;;5056476;28;20044;-78
2023/05/16 12:20:34;;;;;;;7.07;3.10;;;15.10;55.60;;;;;;5065667;28;20423;-78
2023/05/16 12:23:00;;;;;;;8.10;3.33;;;15.10;57.20;;;;;;5082213;28;20039;-78
2023/05/16 12:25:30;;;;;;;6.55;2.95;;;15.10;56.90;;;;;;5061621;28;20047;-79
2023/05/16 12:28:01;;;;;;;7.07;2.88;;;15.00;57.10;;;;;;5078308;28;20579;-78
2023/05/16 12:30:29;;;;;;;6.68;2.92;;;15.00;57.80;;;;;;5043636;28;20482;-79
2023/05/16 12:32:56;;;;;;;6.60;2.78;;;14.80;58.00;;;;;;5047005;28;20399;-78
2023/05/16 12:35:22;;;;;;;8.00;2.55;;;14.70;57.60;;;;;;5078176;28;20043;-78
2023/05/16 12:37:50;;;;;;;5.22;2.30;;;14.60;57.70;;;;;;5043753;28;20458;-79
2023/05/16 12:40:16;;;;;;;8.77;2.13;;;14.50;57.90;;;;;;5040936;28;20048;-79
2023/05/16 12:42:49;;;;;;;6.07;2.17;;;14.30;59.40;;;;;;5077384;28;20044;-78
2023/05/16 12:45:16;;;;;;;5.63;2.17;;;14.30;60.60;;;;;;5072560;28;20036;-78
2023/05/16 12:47:42;;;;;;;6.85;2.58;;;14.30;60.30;;;;;;5061919;28;20047;-79